Time;durP1;ratioP1;P1;durP2;ratioP2;P2;SDS_P1;SDS_P2;PMS_P1;PMS_P2;Temp;Humidity;BMP_temperature;BMP_pressure;BME280_temperature;BME280_humidity;BME280_pressure;Samples;Min_cycle;Max_cycle;Signal;HPM_P1;HPM_P2
2022/08/28 00:00:09;;;;;;;11.47;10.77;;;19.80;99.90;;;;;;5052206;28;20648;-95
2022/08/28 00:02:38;;;;;;;11.27;10.37;;;20.00;99.90;;;;;;5052471;28;20630;-94
2022/08/28 00:05:06;;;;;;;14.33;12.83;;;20.00;99.90;;;;;;5053189;28;20630;-94
2022/08/28 00:07:35;;;;;;;11.80;10.90;;;20.00;99.90;;;;;;5050091;28;20757;-93
2022/08/28 00:10:03;;;;;;;21.70;19.90;;;20.00;99.90;;;;;;5050259;28;20725;-94
2022/08/28 00:12:31;;;;;;;22.90;21.00;;;20.00;99.90;;;;;;5034359;28;20724;-93
2022/08/28 00:14:58;;;;;;;15.93;14.33;;;19.90;99.90;;;;;;5048727;28;21008;-94
2022/08/28 00:17:25;;;;;;;17.83;15.90;;;19.70;99.90;;;;;;5051751;28;21138;-93
2022/08/28 00:19:53;;;;;;;18.20;16.50;;;19.60;99.90;;;;;;5048813;28;21019;-93
2022/08/28 00:22:23;;;;;;;19.97;15.60;;;19.40;99.90;;;;;;5048687;28;20656;-93
2022/08/28 00:24:50;;;;;;;22.70;20.87;;;19.30;99.90;;;;;;5052988;28;20641;-95
2022/08/28 00:30:02;;;;;;;25.53;23.20;;;19.20;99.90;;;;;;5049498;28;20795;-93
2022/08/28 00:32:29;;;;;;;26.70;24.40;;;19.20;99.90;;;;;;5055795;28;20732;-95
2022/08/28 00:35:01;;;;;;;25.00;22.80;;;19.20;99.90;;;;;;5049090;28;20632;-94
2022/08/28 00:37:29;;;;;;;26.80;24.63;;;19.20;99.90;;;;;;5049644;28;20611;-93
2022/08/28 00:39:56;;;;;;;26.57;24.23;;;19.20;99.90;;;;;;5050000;28;20661;-94
2022/08/28 00:42:23;;;;;;;27.23;24.80;;;19.20;99.90;;;;;;5050951;28;20609;-94
2022/08/28 00:44:49;;;;;;;26.90;24.80;;;19.20;99.90;;;;;;5050933;28;20649;-94
2022/08/28 00:47:16;;;;;;;26.83;24.63;;;19.20;99.90;;;;;;5049729;28;20978;-93
2022/08/28 00:49:50;;;;;;;28.77;26.47;;;19.10;99.90;;;;;;5049424;28;20653;-93
2022/08/28 00:52:19;;;;;;;28.23;25.70;;;19.10;99.90;;;;;;5050545;28;20624;-93
2022/08/28 00:54:50;;;;;;;29.37;26.83;;;19.00;99.90;;;;;;5048182;28;21234;-94
2022/08/28 00:57:21;;;;;;;23.73;21.43;;;19.00;99.90;;;;;;5046359;28;20621;-92
2022/08/28 00:59:49;;;;;;;23.00;20.60;;;19.10;99.90;;;;;;5033762;28;21061;-92
2022/08/28 01:02:15;;;;;;;19.57;17.57;;;19.10;99.90;;;;;;5048289;28;20622;-92
2022/08/28 01:04:43;;;;;;;20.43;18.40;;;19.20;99.90;;;;;;5056393;28;20981;-93
2022/08/28 01:07:13;;;;;;;22.27;20.00;;;19.20;99.90;;;;;;5050176;28;20684;-93
2022/08/28 01:09:45;;;;;;;20.40;18.50;;;19.30;99.90;;;;;;5049306;28;20748;-93
2022/08/28 01:12:17;;;;;;;21.80;19.83;;;19.30;99.90;;;;;;5047443;28;20723;-92
2022/08/28 01:14:46;;;;;;;21.53;19.53;;;19.30;99.90;;;;;;5047447;28;20681;-93
2022/08/28 01:17:16;;;;;;;20.87;18.67;;;19.30;99.90;;;;;;5050253;28;20737;-93
2022/08/28 01:19:47;;;;;;;23.20;20.80;;;19.20;99.90;;;;;;5048098;28;20653;-92
2022/08/28 01:22:21;;;;;;;23.83;21.47;;;19.10;99.90;;;;;;5048473;28;20642;-93
2022/08/28 01:24:51;;;;;;;24.50;20.83;;;19.10;99.90;;;;;;5051044;28;20625;-92
2022/08/28 01:27:18;;;;;;;21.33;19.27;;;19.10;99.90;;;;;;5047394;28;20665;-93
2022/08/28 01:29:47;;;;;;;26.67;24.17;;;19.10;99.90;;;;;;5051399;28;20668;-93
2022/08/28 01:32:14;;;;;;;25.00;22.40;;;19.10;99.90;;;;;;5033256;28;20650;-92
2022/08/28 01:34:41;;;;;;;19.53;17.73;;;19.10;99.90;;;;;;5048486;28;20705;-93
2022/08/28 01:37:08;;;;;;;16.97;15.30;;;19.10;99.90;;;;;;5049879;28;20985;-92
2022/08/28 01:39:35;;;;;;;22.70;20.43;;;19.00;99.90;;;;;;5033293;28;20658;-93
2022/08/28 01:42:05;;;;;;;21.53;19.33;;;19.00;99.90;;;;;;5048984;28;20625;-91
2022/08/28 01:44:33;;;;;;;20.67;18.63;;;18.90;99.90;;;;;;5049776;28;20621;-93
2022/08/28 01:47:00;;;;;;;21.63;19.37;;;18.90;99.90;;;;;;5032406;28;20748;-92
2022/08/28 01:49:28;;;;;;;21.03;19.03;;;18.80;99.90;;;;;;5047686;28;20664;-92
2022/08/28 01:51:58;;;;;;;16.90;15.40;;;18.80;99.90;;;;;;5047353;28;20633;-92
2022/08/28 01:54:25;;;;;;;11.57;10.43;;;18.80;99.90;;;;;;5031630;28;20633;-91
2022/08/28 01:56:53;;;;;;;11.33;10.23;;;18.90;99.90;;;;;;5053577;28;20636;-93
2022/08/28 01:59:21;;;;;;;15.77;14.17;;;19.00;99.90;;;;;;5047791;28;20650;-93
2022/08/28 02:01:48;;;;;;;18.63;17.00;;;19.10;99.90;;;;;;5048092;28;20617;-93
2022/08/28 02:04:15;;;;;;;19.00;17.00;;;19.00;99.90;;;;;;5043672;28;20638;-93
2022/08/28 02:06:42;;;;;;;9.33;8.40;;;19.00;99.90;;;;;;5047116;28;20768;-93
2022/08/28 02:09:10;;;;;;;18.77;16.93;;;19.10;99.90;;;;;;5047990;28;20641;-94
2022/08/28 02:11:38;;;;;;;21.53;19.47;;;19.30;99.90;;;;;;5049650;28;20645;-93
2022/08/28 02:14:06;;;;;;;21.67;19.37;;;19.20;99.90;;;;;;5046783;28;20638;-93
2022/08/28 02:16:35;;;;;;;24.23;22.10;;;19.20;99.90;;;;;;5047577;28;20633;-91
2022/08/28 02:19:02;;;;;;;26.20;23.87;;;19.10;99.90;;;;;;5047550;28;20640;-93
2022/08/28 02:21:29;;;;;;;25.80;23.13;;;19.20;99.90;;;;;;5048947;28;20673;-93
2022/08/28 02:23:57;;;;;;;16.43;14.90;;;19.20;99.90;;;;;;5050151;28;20630;-93
2022/08/28 02:26:24;;;;;;;11.80;10.87;;;19.20;99.90;;;;;;5047061;28;21263;-92
2022/08/28 02:28:51;;;;;;;12.40;11.33;;;19.40;99.90;;;;;;5046177;28;21389;-92
2022/08/28 02:31:19;;;;;;;12.73;11.53;;;19.70;99.90;;;;;;5047035;28;20647;-92
2022/08/28 02:33:47;;;;;;;18.47;16.67;;;19.80;99.90;;;;;;5047548;28;20649;-93
2022/08/28 02:36:16;;;;;;;18.73;16.80;;;19.80;99.90;;;;;;5047831;28;20616;-92
2022/08/28 02:38:44;;;;;;;9.17;8.43;;;19.70;99.90;;;;;;5044088;28;20625;-93
2022/08/28 02:41:12;;;;;;;9.07;8.37;;;19.80;99.90;;;;;;5047644;28;20665;-91
2022/08/28 02:43:39;;;;;;;19.47;16.10;;;19.80;99.90;;;;;;5033933;28;20641;-92
2022/08/28 02:46:06;;;;;;;12.53;9.97;;;19.80;99.90;;;;;;5045635;28;20614;-93
2022/08/28 02:48:36;;;;;;;9.27;8.47;;;19.80;99.90;;;;;;5049102;28;21036;-93
2022/08/28 02:51:07;;;;;;;20.30;18.10;;;19.90;99.90;;;;;;5047408;28;20736;-94
2022/08/28 02:53:35;;;;;;;11.17;10.17;;;19.90;99.90;;;;;;5049156;28;20629;-93
2022/08/28 02:56:03;;;;;;;9.60;8.70;;;19.90;99.90;;;;;;5046868;28;20629;-94
2022/08/28 02:58:31;;;;;;;15.63;14.03;;;20.10;99.90;;;;;;5048766;28;20634;-93
2022/08/28 03:00:58;;;;;;;15.77;14.07;;;20.20;99.90;;;;;;5053285;28;21019;-93
2022/08/28 03:03:26;;;;;;;18.03;15.40;;;20.10;99.90;;;;;;5053315;28;20633;-94
2022/08/28 03:05:54;;;;;;;13.73;12.40;;;20.00;99.90;;;;;;5050280;28;20628;-94
2022/08/28 03:08:23;;;;;;;13.13;12.03;;;20.00;99.90;;;;;;5052845;28;20662;-94
2022/08/28 03:10:49;;;;;;;8.80;8.10;;;19.90;99.90;;;;;;5053420;28;20988;-93
2022/08/28 03:13:17;;;;;;;9.33;8.43;;;19.90;99.90;;;;;;5050709;28;20644;-91
2022/08/28 03:15:44;;;;;;;19.23;16.27;;;19.90;99.90;;;;;;5049775;28;20641;-94
2022/08/28 03:18:11;;;;;;;16.20;14.60;;;19.90;99.90;;;;;;5052334;28;20625;-93
2022/08/28 03:20:38;;;;;;;10.30;9.40;;;19.90;99.90;;;;;;5049737;28;21215;-92
2022/08/28 03:25:52;;;;;;;23.17;21.03;;;20.00;99.90;;;;;;5050144;28;20589;-92
2022/08/28 03:28:18;;;;;;;10.60;9.90;;;20.20;99.90;;;;;;5047888;28;21394;-93
2022/08/28 03:30:46;;;;;;;8.57;7.77;;;20.20;99.90;;;;;;5052377;28;20657;-93
2022/08/28 03:33:14;;;;;;;8.23;7.53;;;20.30;99.90;;;;;;5051189;28;20732;-93
2022/08/28 03:35:41;;;;;;;10.83;9.90;;;20.50;99.90;;;;;;5053577;28;20625;-93
2022/08/28 03:38:10;;;;;;;13.90;12.80;;;20.50;99.90;;;;;;5050003;28;20624;-93
2022/08/28 03:40:41;;;;;;;10.00;9.10;;;20.40;99.90;;;;;;5051102;28;20662;-92
2022/08/28 03:43:10;;;;;;;12.30;11.20;;;20.50;99.90;;;;;;5049772;28;20622;-92
2022/08/28 03:45:37;;;;;;;13.30;12.00;;;20.60;99.90;;;;;;5052718;28;20630;-92
2022/08/28 03:48:06;;;;;;;10.20;9.30;;;20.60;99.90;;;;;;5044944;28;20664;-93
2022/08/28 03:50:32;;;;;;;9.37;8.57;;;20.60;99.90;;;;;;5050494;28;20653;-93
2022/08/28 03:52:59;;;;;;;16.17;14.57;;;20.60;99.90;;;;;;5036061;28;20987;-92
2022/08/28 03:55:27;;;;;;;15.10;13.53;;;20.50;99.90;;;;;;5033174;28;20634;-92
2022/08/28 03:57:54;;;;;;;13.97;12.67;;;20.50;99.90;;;;;;5051152;28;20625;-94
2022/08/28 04:00:22;;;;;;;8.67;7.97;;;20.40;99.90;;;;;;5052069;28;20653;-94
2022/08/28 04:02:50;;;;;;;15.17;13.67;;;20.30;99.90;;;;;;5052117;28;20656;-92
2022/08/28 04:05:17;;;;;;;18.97;17.10;;;20.40;99.90;;;;;;5055990;28;20694;-92
2022/08/28 04:07:44;;;;;;;10.13;9.23;;;20.40;99.90;;;;;;5052732;28;21327;-92
2022/08/28 04:10:11;;;;;;;20.63;18.63;;;20.30;99.90;;;;;;5047861;28;20654;-92
2022/08/28 04:12:39;;;;;;;15.70;14.30;;;20.30;99.90;;;;;;5049824;28;20665;-94
2022/08/28 04:15:08;;;;;;;20.33;18.50;;;20.30;99.90;;;;;;5050123;28;20632;-94
2022/08/28 04:17:38;;;;;;;18.47;16.57;;;20.40;99.90;;;;;;5054166;28;20641;-93
2022/08/28 04:20:06;;;;;;;14.70;12.20;;;20.30;99.90;;;;;;5052983;28;21007;-94
2022/08/28 04:22:33;;;;;;;19.97;16.63;;;20.30;99.90;;;;;;5052233;28;20623;-95
2022/08/28 04:25:00;;;;;;;21.50;17.07;;;20.30;99.90;;;;;;5048623;28;20645;-94
2022/08/28 04:27:27;;;;;;;21.20;19.30;;;20.20;99.90;;;;;;5048868;28;20665;-93
2022/08/28 04:29:54;;;;;;;23.70;21.70;;;20.10;99.90;;;;;;5049487;28;21033;-95
2022/08/28 04:32:22;;;;;;;18.83;17.30;;;20.20;99.90;;;;;;5047804;28;20638;-95
2022/08/28 04:34:51;;;;;;;22.73;20.93;;;20.00;99.90;;;;;;5052397;28;20723;-93
2022/08/28 04:37:18;;;;;;;20.10;18.10;;;20.00;99.90;;;;;;5050779;28;20743;-94
2022/08/28 04:39:45;;;;;;;17.00;15.50;;;20.00;99.90;;;;;;5050494;28;21020;-94
2022/08/28 04:42:12;;;;;;;8.50;7.83;;;20.00;99.90;;;;;;5050669;28;20717;-92
2022/08/28 04:44:39;;;;;;;12.40;9.50;;;20.00;99.90;;;;;;5050878;28;20637;-92
2022/08/28 04:47:07;;;;;;;15.53;14.17;;;20.10;99.90;;;;;;5049412;28;20694;-91
2022/08/28 04:49:35;;;;;;;10.10;9.17;;;20.10;99.90;;;;;;5050401;28;20653;-94
2022/08/28 04:52:04;;;;;;;16.77;15.07;;;20.10;99.90;;;;;;5044418;28;20660;-93
2022/08/28 04:54:33;;;;;;;16.50;14.80;;;20.10;99.90;;;;;;5048150;28;20616;-94
2022/08/28 04:57:00;;;;;;;13.90;12.50;;;20.10;99.90;;;;;;5049860;28;20617;-94
2022/08/28 04:59:28;;;;;;;13.43;12.23;;;20.00;99.90;;;;;;5050854;28;20642;-93
2022/08/28 05:01:55;;;;;;;11.23;10.13;;;20.00;99.90;;;;;;5053630;28;20610;-95
2022/08/28 05:04:25;;;;;;;16.53;15.00;;;20.20;99.90;;;;;;5054253;28;20779;-93
2022/08/28 05:06:52;;;;;;;18.83;17.20;;;20.30;99.90;;;;;;5048713;28;20638;-93
2022/08/28 05:09:21;;;;;;;12.23;11.10;;;20.30;99.90;;;;;;5048583;28;21477;-94
2022/08/28 05:11:48;;;;;;;13.43;12.43;;;20.30;99.90;;;;;;5049660;28;20725;-92
2022/08/28 05:14:16;;;;;;;15.40;14.20;;;20.40;99.90;;;;;;5049341;28;20741;-92
2022/08/28 05:16:46;;;;;;;23.10;20.73;;;20.50;99.90;;;;;;5049037;28;21489;-95
2022/08/28 05:19:14;;;;;;;11.73;10.70;;;20.40;99.90;;;;;;5056600;28;20717;-94
2022/08/28 05:21:42;;;;;;;10.77;9.97;;;20.40;99.90;;;;;;5048488;28;20626;-93
2022/08/28 05:24:10;;;;;;;10.40;9.60;;;20.50;99.90;;;;;;5048819;28;20614;-94
2022/08/28 05:26:39;;;;;;;13.80;12.73;;;20.50;99.90;;;;;;5046817;28;20614;-93
2022/08/28 05:29:07;;;;;;;18.70;17.10;;;20.60;99.90;;;;;;5048061;28;20665;-93
2022/08/28 05:31:35;;;;;;;10.40;9.60;;;20.80;99.90;;;;;;5048879;28;20630;-93
2022/08/28 05:34:03;;;;;;;15.87;14.33;;;20.90;99.90;;;;;;5048940;28;20622;-93
2022/08/28 05:36:33;;;;;;;10.93;9.93;;;20.80;99.90;;;;;;5049834;28;20626;-93
2022/08/28 05:39:01;;;;;;;12.17;11.10;;;20.80;99.90;;;;;;5050221;28;20980;-95
2022/08/28 05:41:30;;;;;;;9.63;8.60;;;20.80;99.90;;;;;;5049057;28;20622;-95
2022/08/28 05:44:00;;;;;;;11.97;10.60;;;20.80;99.90;;;;;;5050839;28;20641;-93
2022/08/28 05:46:27;;;;;;;16.77;13.20;;;20.90;99.90;;;;;;5048517;28;20652;-93
2022/08/28 05:48:54;;;;;;;15.50;11.50;;;20.80;99.90;;;;;;5053692;28;21259;-95
2022/08/28 05:51:25;;;;;;;14.23;13.00;;;20.80;99.90;;;;;;5050266;28;20664;-93
2022/08/28 05:53:53;;;;;;;12.43;11.27;;;20.70;99.90;;;;;;5048513;28;20720;-92
2022/08/28 05:56:23;;;;;;;11.20;10.07;;;20.80;99.90;;;;;;5048591;28;20660;-93
2022/08/28 05:58:50;;;;;;;15.70;13.77;;;20.80;99.90;;;;;;5046803;28;20734;-94
2022/08/28 06:01:25;;;;;;;9.00;8.17;;;20.80;99.90;;;;;;5047655;28;20654;-94
2022/08/28 06:03:55;;;;;;;9.27;8.30;;;20.90;99.90;;;;;;5047942;28;20748;-93
2022/08/28 06:06:24;;;;;;;9.07;6.90;;;21.00;99.90;;;;;;5051016;28;20630;-93
2022/08/28 06:08:51;;;;;;;15.97;14.30;;;21.00;99.90;;;;;;5048984;28;20645;-94
2022/08/28 06:11:20;;;;;;;11.37;10.27;;;21.00;99.90;;;;;;5049608;28;20670;-96
2022/08/28 06:13:47;;;;;;;11.37;7.77;;;20.90;99.90;;;;;;5055853;28;20633;-96
2022/08/28 06:16:19;;;;;;;12.10;11.10;;;21.20;99.90;;;;;;5060195;28;21124;-94
2022/08/28 06:18:47;;;;;;;14.17;11.60;;;21.20;99.90;;;;;;5061772;28;20722;-95
2022/08/28 06:21:14;;;;;;;11.37;10.33;;;21.10;99.90;;;;;;5052289;28;20665;-96
2022/08/28 06:23:43;;;;;;;12.53;11.40;;;21.10;99.90;;;;;;5050747;28;20713;-96
2022/08/28 06:26:10;;;;;;;17.73;13.50;;;21.10;99.90;;;;;;5050163;28;20633;-96
2022/08/28 06:28:37;;;;;;;11.97;11.07;;;21.10;99.90;;;;;;5050957;28;20677;-96
2022/08/28 06:31:11;;;;;;;12.70;11.13;;;21.00;99.90;;;;;;5051601;28;21231;-95
2022/08/28 06:33:41;;;;;;;12.90;11.70;;;21.00;99.90;;;;;;5051104;28;20625;-95
2022/08/28 06:36:08;;;;;;;13.50;12.20;;;21.00;99.90;;;;;;5048347;28;20673;-95
2022/08/28 06:38:35;;;;;;;8.83;8.07;;;20.90;99.90;;;;;;5052003;28;20640;-95
2022/08/28 06:41:03;;;;;;;13.57;9.63;;;21.00;99.90;;;;;;5052686;28;20669;-94
2022/08/28 06:43:29;;;;;;;15.00;11.57;;;21.10;99.90;;;;;;5051183;28;20708;-94
2022/08/28 06:46:05;;;;;;;13.53;11.37;;;21.20;99.90;;;;;;5050783;28;20636;-95
2022/08/28 06:48:39;;;;;;;13.23;11.77;;;21.20;99.90;;;;;;5053464;28;20704;-95
2022/08/28 06:51:09;;;;;;;12.73;11.40;;;21.20;99.90;;;;;;5048927;28;20773;-93
2022/08/28 06:53:37;;;;;;;15.07;13.00;;;21.30;99.90;;;;;;5048465;28;21164;-95
2022/08/28 06:56:10;;;;;;;13.57;12.37;;;21.30;99.90;;;;;;5039641;28;21018;-95
2022/08/28 06:58:42;;;;;;;19.37;14.70;;;21.30;99.90;;;;;;5051222;28;21065;-94
2022/08/28 07:01:12;;;;;;;17.70;16.20;;;21.20;99.90;;;;;;5052187;28;21234;-94
2022/08/28 07:03:40;;;;;;;15.73;14.47;;;21.20;99.90;;;;;;5049514;28;20744;-95
2022/08/28 07:06:10;;;;;;;14.27;12.77;;;21.20;99.90;;;;;;5049301;28;20650;-94
2022/08/28 07:08:37;;;;;;;14.97;13.57;;;21.20;99.90;;;;;;5048678;28;20642;-95
2022/08/28 07:11:13;;;;;;;13.07;11.67;;;21.00;99.90;;;;;;5034695;28;21085;-94
2022/08/28 07:13:40;;;;;;;13.17;11.43;;;21.20;99.90;;;;;;5037998;28;20637;-95
2022/08/28 07:16:08;;;;;;;12.67;11.43;;;21.30;99.90;;;;;;5049955;28;20636;-94
2022/08/28 07:18:35;;;;;;;13.30;11.90;;;21.50;99.90;;;;;;5049237;28;20634;-94
2022/08/28 07:21:03;;;;;;;16.90;13.63;;;21.50;99.90;;;;;;5046553;28;21216;-95
2022/08/28 07:23:34;;;;;;;15.83;14.50;;;21.60;99.90;;;;;;5049546;28;20622;-95
2022/08/28 07:26:03;;;;;;;12.67;11.37;;;21.60;99.90;;;;;;5047005;28;20626;-94
2022/08/28 07:28:31;;;;;;;12.50;11.50;;;21.70;99.90;;;;;;5047610;28;21235;-95
2022/08/28 07:31:00;;;;;;;11.83;10.70;;;21.90;99.90;;;;;;5049616;28;21525;-96
2022/08/28 07:33:29;;;;;;;11.37;10.27;;;21.90;99.90;;;;;;5043616;28;20660;-96
2022/08/28 07:35:58;;;;;;;14.40;13.10;;;22.10;99.90;;;;;;5046170;28;20641;-95
2022/08/28 07:38:25;;;;;;;13.80;12.80;;;22.20;99.90;;;;;;5047024;28;21169;-95
2022/08/28 07:40:55;;;;;;;10.03;9.13;;;22.20;99.90;;;;;;5047007;28;20669;-93
2022/08/28 07:46:10;;;;;;;15.30;14.13;;;22.20;99.90;;;;;;5047045;28;20755;-95
2022/08/28 07:48:46;;;;;;;7.73;7.23;;;22.30;99.90;;;;;;5055027;28;21102;-95
2022/08/28 07:51:13;;;;;;;16.53;13.40;;;22.50;99.90;;;;;;5049813;28;20749;-94
2022/08/28 07:53:41;;;;;;;12.57;10.03;;;22.40;99.90;;;;;;5042845;28;20629;-94
2022/08/28 07:56:10;;;;;;;13.10;11.80;;;22.60;99.90;;;;;;5050407;28;20630;-94
2022/08/28 07:58:37;;;;;;;12.60;11.10;;;22.60;99.90;;;;;;5051928;28;20783;-94
2022/08/28 08:01:10;;;;;;;15.60;12.27;;;22.50;99.90;;;;;;5052545;28;21266;-94
2022/08/28 08:03:38;;;;;;;9.63;8.63;;;22.60;99.90;;;;;;5049768;28;20661;-94
2022/08/28 08:06:06;;;;;;;11.53;10.13;;;22.70;99.90;;;;;;5056476;28;21103;-95
2022/08/28 08:08:34;;;;;;;9.87;9.07;;;22.80;99.90;;;;;;5052539;28;21220;-94
2022/08/28 08:11:12;;;;;;;11.63;10.73;;;22.90;99.90;;;;;;5052307;28;20679;-94
2022/08/28 08:13:40;;;;;;;11.07;10.13;;;23.00;99.90;;;;;;5049376;28;20665;-93
2022/08/28 08:16:11;;;;;;;9.20;7.53;;;23.10;99.90;;;;;;5050237;28;20676;-93
2022/08/28 08:18:38;;;;;;;9.77;8.90;;;23.30;99.90;;;;;;5050950;28;21170;-93
2022/08/28 08:21:08;;;;;;;13.43;10.73;;;23.40;99.90;;;;;;5056461;28;20736;-93
2022/08/28 08:23:37;;;;;;;12.47;11.27;;;23.50;99.90;;;;;;5035561;28;20626;-94
2022/08/28 08:26:07;;;;;;;11.80;9.40;;;23.60;99.90;;;;;;5032296;28;20633;-94
2022/08/28 08:28:37;;;;;;;11.17;9.90;;;23.60;99.90;;;;;;5042252;28;20625;-93
2022/08/28 08:31:06;;;;;;;11.43;10.53;;;23.60;99.90;;;;;;5051469;28;20694;-94
2022/08/28 08:33:33;;;;;;;8.43;7.80;;;23.50;99.90;;;;;;5051702;28;20622;-93
2022/08/28 08:36:00;;;;;;;9.03;8.23;;;23.70;99.90;;;;;;5048930;28;20991;-94
2022/08/28 08:38:30;;;;;;;10.17;9.37;;;23.70;99.90;;;;;;5050011;28;20687;-94
2022/08/28 08:40:58;;;;;;;11.50;9.50;;;23.70;99.90;;;;;;5049278;28;20658;-93
2022/08/28 08:43:27;;;;;;;8.53;7.73;;;23.60;99.90;;;;;;5053185;28;20626;-93
2022/08/28 08:45:55;;;;;;;7.50;6.90;;;23.80;99.90;;;;;;5050955;28;20648;-93
2022/08/28 08:48:28;;;;;;;6.80;6.30;;;24.00;99.90;;;;;;5052468;28;21228;-92
2022/08/28 08:50:59;;;;;;;9.57;8.77;;;24.20;99.90;;;;;;5046798;28;20648;-92
2022/08/28 08:53:34;;;;;;;9.33;8.43;;;24.00;99.90;;;;;;5050045;28;20616;-91
2022/08/28 08:56:04;;;;;;;7.50;6.87;;;24.00;99.90;;;;;;5049518;28;20617;-92
2022/08/28 08:58:35;;;;;;;12.30;8.60;;;24.10;99.90;;;;;;5046969;28;20622;-91
2022/08/28 09:01:09;;;;;;;8.20;6.60;;;24.20;99.90;;;;;;5048107;28;20649;-92
2022/08/28 09:03:49;;;;;;;6.77;6.03;;;24.00;99.90;;;;;;5049327;28;20644;-92
2022/08/28 09:06:25;;;;;;;8.00;6.23;;;24.20;99.90;;;;;;5046435;28;20625;-91
2022/08/28 09:08:59;;;;;;;9.60;8.70;;;24.30;99.90;;;;;;5050250;28;20707;-92
2022/08/28 09:11:41;;;;;;;8.30;7.70;;;24.30;99.90;;;;;;5049949;28;20626;-92
2022/08/28 09:14:14;;;;;;;6.80;6.33;;;24.20;99.90;;;;;;5051729;28;20761;-92
2022/08/28 09:16:45;;;;;;;8.23;7.47;;;24.30;99.90;;;;;;5049619;28;20616;-92
2022/08/28 09:19:17;;;;;;;8.43;7.63;;;24.30;99.90;;;;;;5049316;28;20657;-92
2022/08/28 09:21:45;;;;;;;9.40;6.57;;;24.30;99.90;;;;;;5048007;28;20621;-92
2022/08/28 09:24:20;;;;;;;8.10;7.40;;;24.40;99.90;;;;;;5055020;28;20629;-91
2022/08/28 09:26:52;;;;;;;8.10;7.27;;;24.40;99.90;;;;;;5034963;28;20726;-91
2022/08/28 09:29:28;;;;;;;8.37;7.70;;;24.30;99.90;;;;;;5046038;28;22489;-92
2022/08/28 09:32:14;;;;;;;7.57;6.87;;;24.40;99.90;;;;;;5049190;28;20630;-91
2022/08/28 09:35:00;;;;;;;6.77;6.27;;;24.50;99.90;;;;;;5047530;28;20626;-92
2022/08/28 09:37:31;;;;;;;7.10;6.50;;;24.70;99.90;;;;;;5045792;28;20617;-92
2022/08/28 09:40:18;;;;;;;7.47;6.77;;;24.90;99.90;;;;;;5032026;28;20761;-92
2022/08/28 09:45:52;;;;;;;6.03;5.53;;;25.10;99.90;;;;;;5043046;28;20609;-91
2022/08/28 09:48:22;;;;;;;6.00;5.60;;;25.20;99.90;;;;;;5047004;28;20664;-91
2022/08/28 09:51:02;;;;;;;6.23;5.73;;;25.30;99.90;;;;;;5045620;28;20669;-91
2022/08/28 09:53:30;;;;;;;7.27;6.57;;;25.30;99.90;;;;;;5046988;28;20998;-92
2022/08/28 09:56:09;;;;;;;5.80;5.27;;;25.30;99.90;;;;;;5039647;28;20675;-91
2022/08/28 09:58:38;;;;;;;6.03;5.53;;;25.40;99.90;;;;;;5041027;28;20633;-91
2022/08/28 10:01:15;;;;;;;6.17;5.77;;;25.50;99.90;;;;;;5044237;28;21012;-90
2022/08/28 10:03:52;;;;;;;7.83;6.60;;;25.60;99.90;;;;;;5044619;28;20645;-91
2022/08/28 10:06:27;;;;;;;8.70;6.70;;;25.70;99.90;;;;;;5043028;28;20965;-90
2022/08/28 10:09:06;;;;;;;6.40;5.90;;;25.60;99.90;;;;;;5046188;28;20633;-91
2022/08/28 10:11:46;;;;;;;6.00;5.43;;;25.60;99.90;;;;;;5044206;28;20641;-90
2022/08/28 10:14:33;;;;;;;6.70;6.00;;;25.60;99.90;;;;;;5047027;28;20687;-91
2022/08/28 10:17:11;;;;;;;5.73;5.23;;;25.70;99.90;;;;;;5041945;28;21183;-91
2022/08/28 10:19:51;;;;;;;6.70;6.20;;;25.90;99.90;;;;;;5026777;28;21322;-90
2022/08/28 10:22:28;;;;;;;6.37;5.97;;;25.90;99.90;;;;;;5042813;28;20641;-91
2022/08/28 10:25:10;;;;;;;6.87;6.17;;;25.90;99.90;;;;;;5042760;28;21196;-91
2022/08/28 10:27:52;;;;;;;6.70;6.20;;;26.00;99.90;;;;;;5047002;28;20985;-90
2022/08/28 10:30:22;;;;;;;7.40;6.60;;;26.00;99.90;;;;;;5043052;28;21200;-90
2022/08/28 10:33:03;;;;;;;6.03;5.50;;;25.90;99.90;;;;;;5045549;28;20618;-90
2022/08/28 10:35:44;;;;;;;6.50;5.97;;;25.80;99.90;;;;;;5041782;28;20632;-89
2022/08/28 10:38:15;;;;;;;8.73;7.70;;;25.70;99.90;;;;;;5042306;28;20703;-92
2022/08/28 10:40:51;;;;;;;6.23;5.63;;;25.60;99.90;;;;;;5028654;28;20674;-89
2022/08/28 10:43:23;;;;;;;11.03;6.00;;;25.60;99.90;;;;;;5042052;28;20654;-90
2022/08/28 10:45:53;;;;;;;6.93;6.43;;;25.60;99.90;;;;;;5045136;28;21153;-89
2022/08/28 10:48:25;;;;;;;7.73;7.03;;;25.60;99.90;;;;;;5043074;28;20661;-90
2022/08/28 10:50:56;;;;;;;6.83;5.60;;;25.70;99.90;;;;;;5041990;28;20681;-87
2022/08/28 10:53:28;;;;;;;6.27;5.83;;;25.60;99.90;;;;;;5038924;28;21001;-80
2022/08/28 10:55:58;;;;;;;8.07;7.37;;;25.60;99.90;;;;;;5040935;28;21171;-81
2022/08/28 10:58:27;;;;;;;6.97;6.37;;;25.60;99.90;;;;;;5043096;28;21403;-80
2022/08/28 11:00:56;;;;;;;8.10;7.40;;;25.70;99.90;;;;;;5041768;28;20676;-81
2022/08/28 11:03:26;;;;;;;6.43;5.93;;;25.60;99.90;;;;;;5041924;28;20625;-80
2022/08/28 11:06:00;;;;;;;7.10;6.53;;;25.70;99.90;;;;;;5042497;28;20637;-81
2022/08/28 11:08:30;;;;;;;10.23;7.00;;;25.70;99.90;;;;;;5042789;28;20633;-81
2022/08/28 11:10:59;;;;;;;7.00;6.03;;;25.60;99.90;;;;;;5042563;28;20683;-81
2022/08/28 11:13:47;;;;;;;7.20;6.57;;;25.60;99.90;;;;;;5041465;28;20736;-81
2022/08/28 11:16:20;;;;;;;7.97;5.90;;;25.70;99.90;;;;;;5036649;28;20657;-81
2022/08/28 11:19:20;;;;;;;6.47;5.97;;;25.70;99.90;;;;;;5042414;28;20626;-81
2022/08/28 11:21:53;;;;;;;6.60;6.07;;;25.80;99.90;;;;;;5043803;28;20643;-81
2022/08/28 11:24:47;;;;;;;7.07;6.37;;;25.90;99.90;;;;;;5045436;28;20653;-80
2022/08/28 11:27:33;;;;;;;6.60;6.00;;;26.30;99.90;;;;;;5045985;28;20638;-80
2022/08/28 11:30:20;;;;;;;6.80;6.13;;;26.60;99.90;;;;;;5042812;28;21107;-80
2022/08/28 11:33:06;;;;;;;6.90;6.30;;;26.90;99.90;;;;;;5042681;28;20621;-80
2022/08/28 11:35:50;;;;;;;6.73;6.23;;;27.10;99.90;;;;;;5044911;28;20695;-80
2022/08/28 11:38:55;;;;;;;6.77;6.10;;;27.30;99.90;;;;;;5046922;28;20618;-80
2022/08/28 11:41:26;;;;;;;7.37;6.77;;;27.30;99.90;;;;;;5045447;28;20728;-80
2022/08/28 11:44:36;;;;;;;6.67;6.10;;;27.50;99.90;;;;;;5046281;28;20703;-80
2022/08/28 11:47:36;;;;;;;5.83;5.27;;;28.00;99.90;;;;;;5031487;28;20644;-80
2022/08/28 11:50:12;;;;;;;6.03;5.63;;;28.70;99.30;;;;;;5044124;28;20677;-80
2022/08/28 11:53:16;;;;;;;6.07;5.57;;;29.30;95.10;;;;;;5046509;28;20667;-80
2022/08/28 11:56:10;;;;;;;5.53;5.07;;;29.90;91.30;;;;;;5042777;28;20629;-80
2022/08/28 11:58:46;;;;;;;5.30;5.00;;;30.30;88.00;;;;;;5020380;28;20710;-80
2022/08/28 12:01:27;;;;;;;6.37;4.77;;;30.80;80.90;;;;;;5043508;28;20653;-81
2022/08/28 12:03:57;;;;;;;6.20;5.60;;;31.00;80.10;;;;;;5046861;28;20645;-81
2022/08/28 12:06:47;;;;;;;6.53;5.67;;;30.70;80.70;;;;;;5041285;28;20660;-80
2022/08/28 12:09:37;;;;;;;8.07;5.53;;;30.40;85.30;;;;;;5038678;28;20642;-81
2022/08/28 12:12:06;;;;;;;6.17;5.77;;;30.10;86.10;;;;;;5044312;28;20625;-81
2022/08/28 12:15:10;;;;;;;6.20;5.70;;;29.80;88.60;;;;;;5044290;28;21160;-81
2022/08/28 12:17:51;;;;;;;6.07;5.57;;;29.60;90.60;;;;;;5044792;28;21215;-81
2022/08/28 12:20:39;;;;;;;7.10;6.50;;;29.40;93.10;;;;;;5045937;28;20651;-81
2022/08/28 12:23:29;;;;;;;6.20;5.70;;;29.40;92.70;;;;;;5045196;28;20641;-81
2022/08/28 12:26:01;;;;;;;6.53;5.93;;;29.30;93.70;;;;;;5044460;28;20625;-80
2022/08/28 12:28:31;;;;;;;6.90;6.23;;;29.10;92.90;;;;;;5044336;28;20685;-80
2022/08/28 12:34:23;;;;;;;5.73;5.20;;;29.40;92.80;;;;;;5044605;28;20610;-81
2022/08/28 12:36:57;;;;;;;5.77;5.20;;;30.30;90.10;;;;;;5046362;28;20617;-81
2022/08/28 12:39:24;;;;;;;6.60;5.80;;;30.80;84.00;;;;;;5045414;28;20657;-81
2022/08/28 12:41:51;;;;;;;8.57;7.77;;;31.30;80.30;;;;;;5045541;28;20988;-81
2022/08/28 12:44:24;;;;;;;6.27;5.83;;;31.60;80.20;;;;;;5044907;28;20634;-81
2022/08/28 12:46:53;;;;;;;9.03;8.40;;;31.70;78.40;;;;;;5045304;28;21033;-81
2022/08/28 12:49:32;;;;;;;6.53;5.90;;;31.90;76.30;;;;;;5044261;28;20650;-81
2022/08/28 12:52:12;;;;;;;5.90;5.40;;;31.60;75.10;;;;;;5045868;28;20657;-82
2022/08/28 12:54:39;;;;;;;8.13;7.47;;;31.50;75.60;;;;;;5044749;28;20613;-81
2022/08/28 12:57:09;;;;;;;8.37;7.67;;;31.20;77.90;;;;;;5043323;28;21097;-82
2022/08/28 12:59:38;;;;;;;7.90;7.37;;;30.90;80.00;;;;;;5045900;28;20653;-81
2022/08/28 13:02:09;;;;;;;8.30;7.70;;;30.90;77.80;;;;;;5041267;28;20630;-81
2022/08/28 13:04:39;;;;;;;7.90;7.20;;;31.40;78.30;;;;;;5044898;28;20629;-81
2022/08/28 13:07:10;;;;;;;5.17;4.67;;;31.90;74.60;;;;;;5043560;28;20675;-82
2022/08/28 13:09:38;;;;;;;5.60;5.30;;;32.30;72.20;;;;;;5044900;28;21223;-81